This is the latest recevied weather packets stored in our database for station/object VK5KJP. If no packets are shown the sender has not sent any weather packets the latest 10 day(s).
| Time | Temp. | Humidity | Pressure | Rain* | Wind** | Luminosity | Snow |
|---|---|---|---|---|---|---|---|
| 1777701937 | 17.22° C | 85% | 1011.2 hPa | 0 mm | - | - | - |
| 1777695967 | 15.56° C | 92% | 1010.9 hPa | 0.51 mm | - | - | - |
| 1777692347 | 15° C | 91% | 1011.7 hPa | 1.52 mm | - | - | - |
| 1777672538 | 21.67° C | 50% | 1009.9 hPa | 0 mm | - | - | - |
| 1777670746 | 21.11° C | 45% | 1009.8 hPa | 0 mm | - | - | - |
| 1777668946 | 21.67° C | 43% | 1009.7 hPa | 0 mm | - | - | - |
| 1777667746 | 20.56° C | 44% | 1009.7 hPa | 0 mm | - | - | - |
| 1777667146 | 20° C | 47% | 1009.5 hPa | 0 mm | - | - | - |
| 1777664747 | 20° C | 47% | 1009.3 hPa | 0 mm | - | - | - |
| 1777664138 | 20.56° C | 48% | 1009.4 hPa | 0 mm | - | - | - |
| 1777663546 | 20.56° C | 48% | 1009.3 hPa | 0 mm | - | - | - |
| 1777661746 | 20.56° C | 47% | 1009.3 hPa | 0 mm | - | - | - |
| 1777657546 | 21.67° C | 51% | 1010 hPa | 0 mm | - | - | - |
| 1777656346 | 21.67° C | 45% | 1010.2 hPa | 0 mm | - | - | - |
| 1777655146 | 21.11° C | 47% | 1010.4 hPa | 0 mm | - | - | - |
| 1777650947 | 20.56° C | 52% | 1011.3 hPa | 0 mm | - | - | - |
| 1777648548 | 20.56° C | 53% | 1011.7 hPa | 0 mm | - | - | - |
| 1777647338 | 20.56° C | 52% | 1011.8 hPa | 0 mm | - | - | - |
| 1777646746 | 20.56° C | 52% | 1011.8 hPa | 0 mm | - | - | - |
| 1777645546 | 20.56° C | 53% | 1011.9 hPa | 0 mm | - | - | - |
| 1777644349 | 20.56° C | 51% | 1012.2 hPa | 0 mm | - | - | - |
| 1777643138 | 21.11° C | 48% | 1012.5 hPa | 0 mm | - | - | - |
| 1777642546 | 21.11° C | 48% | 1012.6 hPa | 0 mm | - | - | - |
| 1777641946 | 21.11° C | 48% | 1012.8 hPa | 0 mm | - | - | - |
| 1777639546 | 21.67° C | 46% | 1013.2 hPa | 0 mm | - | - | - |
* Rain latest hour (hover to see other rain measurements)
** Current wind speed in m/s (hover to see current wind gust speed)